Time;durP1;ratioP1;P1;durP2;ratioP2;P2;SDS_P1;SDS_P2;PMS_P1;PMS_P2;Temp;Humidity;BMP_temperature;BMP_pressure;BME280_temperature;BME280_humidity;BME280_pressure;Samples;Min_cycle;Max_cycle;Signal;HPM_P1;HPM_P2
2023/03/02 00:00:09;;;;;;;7.75;4.72;;;10.10;77.00;;;;;;6304150;22;20072;-79
2023/03/02 00:02:38;;;;;;;7.43;4.95;;;10.10;77.20;;;;;;6155665;23;20078;-78
2023/03/02 00:05:05;;;;;;;7.63;4.63;;;10.10;76.10;;;;;;6157636;23;20033;-78
2023/03/02 00:07:33;;;;;;;6.78;4.70;;;10.20;76.40;;;;;;6156967;23;20344;-76
2023/03/02 00:09:59;;;;;;;10.35;5.13;;;10.10;75.80;;;;;;6157269;23;20010;-76
2023/03/02 00:12:32;;;;;;;7.70;4.78;;;10.10;76.40;;;;;;6157260;23;20461;-77
2023/03/02 00:14:58;;;;;;;7.78;4.15;;;10.00;77.10;;;;;;6157251;23;20025;-78
2023/03/02 00:17:27;;;;;;;7.43;4.50;;;10.00;76.50;;;;;;6157172;23;20002;-77
2023/03/02 00:19:53;;;;;;;8.63;4.45;;;10.00;76.50;;;;;;6157558;23;20449;-75
2023/03/02 00:22:19;;;;;;;7.38;4.38;;;10.00;76.20;;;;;;6131885;23;20084;-78
2023/03/02 00:24:45;;;;;;;7.65;4.53;;;10.00;76.40;;;;;;6130967;23;20435;-77
2023/03/02 00:27:11;;;;;;;8.52;4.50;;;10.00;76.30;;;;;;6156904;23;20005;-77
2023/03/02 00:29:36;;;;;;;8.93;4.80;;;10.10;76.30;;;;;;6156910;23;20009;-77
2023/03/02 00:32:02;;;;;;;8.50;4.78;;;10.20;76.40;;;;;;6131181;23;20009;-77
2023/03/02 00:34:31;;;;;;;5.88;3.97;;;10.20;76.30;;;;;;6156807;23;20002;-78
2023/03/02 00:36:57;;;;;;;8.35;4.60;;;10.20;76.20;;;;;;6157278;23;20069;-76
2023/03/02 00:39:23;;;;;;;6.93;3.90;;;10.20;76.40;;;;;;6157619;23;20018;-77
2023/03/02 00:41:49;;;;;;;6.97;4.35;;;10.20;76.60;;;;;;6157094;23;20516;-78
2023/03/02 00:44:18;;;;;;;7.70;4.55;;;10.20;76.60;;;;;;6131462;23;20021;-79
2023/03/02 00:46:44;;;;;;;6.35;4.18;;;10.30;77.00;;;;;;6130591;23;20009;-77
2023/03/02 00:49:10;;;;;;;6.55;4.47;;;10.30;76.80;;;;;;6157114;23;20335;-77
2023/03/02 00:51:36;;;;;;;7.07;4.32;;;10.40;76.90;;;;;;6156785;23;20419;-76
2023/03/02 00:54:02;;;;;;;8.50;4.63;;;10.30;76.90;;;;;;6156583;23;20123;-70
2023/03/02 00:56:28;;;;;;;8.45;4.53;;;10.30;77.00;;;;;;6156702;23;19993;-76
2023/03/02 00:58:54;;;;;;;7.93;4.82;;;10.40;77.20;;;;;;6156158;23;20013;-76
2023/03/02 01:01:20;;;;;;;7.43;4.88;;;10.40;77.10;;;;;;6156235;23;20009;-77
2023/03/02 01:03:46;;;;;;;7.32;4.70;;;10.30;77.20;;;;;;6157479;23;20005;-75
2023/03/02 01:06:16;;;;;;;8.95;5.40;;;10.30;77.50;;;;;;6157273;23;20004;-77
2023/03/02 01:08:42;;;;;;;8.45;4.88;;;10.30;77.70;;;;;;6158221;23;20052;-76
2023/03/02 01:11:13;;;;;;;7.25;4.43;;;10.30;78.30;;;;;;6157028;23;20001;-75
2023/03/02 01:13:39;;;;;;;7.00;4.05;;;10.20;77.90;;;;;;6156575;23;20001;-78
2023/03/02 01:16:05;;;;;;;8.73;4.40;;;10.20;78.20;;;;;;6130281;23;20017;-76
2023/03/02 01:18:31;;;;;;;9.50;4.70;;;10.20;78.10;;;;;;6156016;23;20009;-77
2023/03/02 01:21:04;;;;;;;7.00;4.35;;;10.20;78.60;;;;;;6156570;23;20009;-77
2023/03/02 01:23:30;;;;;;;9.25;5.30;;;10.10;78.90;;;;;;6156309;23;20009;-76
2023/03/02 01:25:55;;;;;;;11.32;5.40;;;10.10;78.70;;;;;;6156211;23;20085;-77
2023/03/02 01:28:21;;;;;;;7.20;5.15;;;10.10;79.10;;;;;;6155883;23;20073;-76
2023/03/02 01:30:47;;;;;;;7.40;4.80;;;10.00;79.00;;;;;;6156088;23;20103;-74
2023/03/02 01:33:13;;;;;;;10.50;5.47;;;10.00;79.50;;;;;;6156414;23;20005;-75
2023/03/02 01:35:39;;;;;;;6.60;4.75;;;10.00;79.70;;;;;;6130439;23;20009;-75
2023/03/02 01:38:05;;;;;;;8.05;5.22;;;9.90;80.70;;;;;;6156589;23;20060;-75
2023/03/02 01:40:30;;;;;;;6.75;4.85;;;9.80;81.10;;;;;;6155873;23;20006;-76
2023/03/02 01:43:01;;;;;;;7.90;5.15;;;9.80;81.40;;;;;;6155927;23;20350;-75
2023/03/02 01:45:42;;;;;;;7.10;4.43;;;9.80;81.60;;;;;;6155710;23;20385;-75
2023/03/02 01:48:10;;;;;;;7.38;4.60;;;9.80;81.30;;;;;;6156413;23;20387;-76
2023/03/02 01:50:36;;;;;;;7.68;5.00;;;9.80;81.40;;;;;;6156149;23;20001;-76
2023/03/02 01:53:01;;;;;;;6.43;4.63;;;9.80;81.90;;;;;;6154495;23;20457;-75
2023/03/02 01:55:31;;;;;;;7.07;4.72;;;9.80;81.60;;;;;;6155521;23;20408;-76
2023/03/02 01:57:59;;;;;;;9.25;5.38;;;9.80;81.80;;;;;;6156134;23;20045;-76
2023/03/02 02:00:30;;;;;;;7.65;5.30;;;9.80;81.60;;;;;;6155788;23;20085;-75
2023/03/02 02:03:07;;;;;;;9.18;6.00;;;9.80;81.80;;;;;;6155432;23;20033;-76
2023/03/02 02:05:36;;;;;;;8.35;6.20;;;9.80;81.70;;;;;;6155884;23;20486;-76
2023/03/02 02:08:02;;;;;;;10.00;6.03;;;9.90;81.90;;;;;;6155395;23;20006;-76
2023/03/02 02:10:31;;;;;;;7.68;5.30;;;9.90;82.20;;;;;;6155389;23;20024;-77
2023/03/02 02:12:57;;;;;;;6.47;4.50;;;9.90;81.90;;;;;;6155710;23;20048;-75
2023/03/02 02:15:23;;;;;;;9.65;5.03;;;9.80;81.80;;;;;;6155438;23;20001;-76
2023/03/02 02:17:50;;;;;;;7.30;4.70;;;9.90;82.00;;;;;;6155321;23;20009;-76
2023/03/02 02:20:18;;;;;;;6.70;4.88;;;9.90;81.80;;;;;;6155687;23;20387;-76
2023/03/02 02:22:52;;;;;;;6.88;4.18;;;9.90;81.80;;;;;;6155372;23;20446;-76
2023/03/02 02:25:34;;;;;;;8.23;4.47;;;9.80;81.70;;;;;;6155691;23;20076;-77
2023/03/02 02:28:07;;;;;;;6.38;4.13;;;9.80;81.40;;;;;;6155560;23;20105;-76
2023/03/02 02:30:35;;;;;;;5.80;4.00;;;9.60;81.80;;;;;;6155736;23;20085;-75
2023/03/02 02:33:02;;;;;;;8.32;4.40;;;9.60;81.50;;;;;;6155431;23;20005;-76
2023/03/02 02:35:31;;;;;;;5.80;3.92;;;9.60;82.00;;;;;;6155142;23;20372;-76
2023/03/02 02:38:03;;;;;;;7.57;4.10;;;9.50;81.50;;;;;;6155647;23;20006;-76
2023/03/02 02:40:50;;;;;;;6.13;4.00;;;9.50;81.70;;;;;;6129688;23;20357;-75
2023/03/02 02:43:19;;;;;;;5.88;4.20;;;9.40;81.80;;;;;;6155354;23;20072;-74
2023/03/02 02:45:47;;;;;;;7.22;4.50;;;9.40;81.70;;;;;;6155015;23;20341;-75
2023/03/02 02:48:19;;;;;;;6.65;4.38;;;9.40;81.40;;;;;;6154932;23;20056;-75
2023/03/02 02:50:46;;;;;;;6.53;4.65;;;9.40;81.70;;;;;;6155104;23;20001;-76
2023/03/02 02:53:22;;;;;;;7.35;4.55;;;9.30;81.50;;;;;;6154955;23;20061;-74
2023/03/02 02:55:50;;;;;;;8.48;4.72;;;9.30;81.70;;;;;;6129065;23;20341;-76
2023/03/02 02:58:42;;;;;;;6.82;4.18;;;9.30;82.00;;;;;;6155031;23;20336;-75
2023/03/02 03:01:17;;;;;;;8.73;4.78;;;9.30;82.30;;;;;;6155324;23;20021;-75
2023/03/02 03:03:49;;;;;;;7.72;4.32;;;9.40;81.90;;;;;;6154928;23;20395;-75
2023/03/02 03:06:24;;;;;;;6.70;4.85;;;9.40;82.10;;;;;;6155085;23;20371;-75
2023/03/02 03:08:55;;;;;;;7.32;4.72;;;9.50;81.90;;;;;;6154925;23;20036;-75
2023/03/02 03:11:46;;;;;;;6.93;4.40;;;9.50;81.80;;;;;;6155101;23;20005;-76
2023/03/02 03:14:15;;;;;;;6.65;4.32;;;9.50;82.20;;;;;;6147917;23;20447;-76
2023/03/02 03:16:43;;;;;;;6.05;4.30;;;9.50;81.60;;;;;;6155228;23;20454;-76
2023/03/02 03:19:20;;;;;;;8.95;4.75;;;9.40;81.60;;;;;;6154634;23;20474;-76
2023/03/02 03:21:49;;;;;;;7.82;4.63;;;9.30;82.00;;;;;;6154745;23;20045;-75
2023/03/02 03:24:15;;;;;;;8.20;4.63;;;9.40;82.40;;;;;;6154837;23;19998;-75
2023/03/02 03:26:41;;;;;;;6.10;4.68;;;9.40;82.50;;;;;;6155227;23;20048;-76
2023/03/02 03:29:06;;;;;;;7.40;4.53;;;9.30;82.40;;;;;;6155286;23;20002;-76
2023/03/02 03:31:32;;;;;;;7.80;4.78;;;9.30;82.60;;;;;;6155188;23;20008;-76
2023/03/02 03:34:01;;;;;;;6.55;4.57;;;9.30;82.50;;;;;;6155093;23;20492;-76
2023/03/02 03:36:29;;;;;;;8.88;5.05;;;9.30;82.80;;;;;;6154728;23;20005;-76
2023/03/02 03:38:55;;;;;;;9.70;4.90;;;9.30;82.50;;;;;;6154785;23;20009;-76
2023/03/02 03:41:21;;;;;;;7.07;4.90;;;9.40;82.80;;;;;;6154835;23;20060;-76
2023/03/02 03:43:47;;;;;;;7.07;5.03;;;9.40;82.60;;;;;;6154975;23;20082;-76
2023/03/02 03:46:13;;;;;;;7.65;5.28;;;9.40;82.70;;;;;;6154997;23;20483;-75
2023/03/02 03:48:39;;;;;;;8.13;5.30;;;9.40;82.70;;;;;;6155295;23;20450;-76
2023/03/02 03:51:05;;;;;;;6.80;5.07;;;9.40;82.60;;;;;;6155191;23;20010;-76
2023/03/02 03:53:31;;;;;;;8.60;5.25;;;9.40;82.60;;;;;;6154964;23;20005;-75
2023/03/02 03:55:56;;;;;;;7.90;4.78;;;9.30;82.60;;;;;;6154867;23;20008;-76
2023/03/02 03:58:23;;;;;;;6.07;4.70;;;9.30;82.90;;;;;;6154673;23;20009;-76
2023/03/02 04:00:50;;;;;;;7.40;5.10;;;9.30;83.40;;;;;;6154848;23;20013;-76
2023/03/02 04:03:16;;;;;;;7.65;5.32;;;9.30;83.00;;;;;;6128905;23;20384;-75
2023/03/02 04:05:42;;;;;;;8.57;4.93;;;9.20;82.90;;;;;;6154488;23;20041;-76
2023/03/02 04:08:08;;;;;;;6.10;4.35;;;9.20;83.10;;;;;;6154688;23;20082;-76
2023/03/02 04:10:33;;;;;;;6.93;4.95;;;9.10;83.20;;;;;;6154589;23;20009;-76
2023/03/02 04:12:59;;;;;;;6.53;4.40;;;9.10;83.70;;;;;;6154779;23;20009;-77
2023/03/02 04:15:25;;;;;;;7.10;4.40;;;9.20;83.40;;;;;;6155016;23;19998;-76
2023/03/02 04:17:51;;;;;;;7.22;5.25;;;9.20;83.30;;;;;;6155422;23;20005;-76
2023/03/02 04:20:19;;;;;;;8.43;4.80;;;9.10;83.30;;;;;;6154555;23;20457;-77
2023/03/02 04:22:46;;;;;;;7.10;4.53;;;9.20;83.40;;;;;;6154602;23;20092;-75
2023/03/02 04:25:14;;;;;;;7.68;4.57;;;9.10;83.00;;;;;;6155127;23;20347;-76
2023/03/02 04:27:40;;;;;;;7.65;4.38;;;9.10;83.60;;;;;;6128552;23;20007;-76
2023/03/02 04:30:07;;;;;;;6.72;4.22;;;9.10;83.30;;;;;;6154413;23;20009;-75
2023/03/02 04:32:33;;;;;;;7.95;4.40;;;9.10;83.40;;;;;;6155164;23;20024;-75
2023/03/02 04:34:59;;;;;;;10.80;4.70;;;9.10;83.10;;;;;;6156519;23;20387;-76
2023/03/02 04:37:25;;;;;;;6.22;4.18;;;9.10;84.20;;;;;;6156298;23;20001;-76
2023/03/02 04:39:52;;;;;;;6.15;4.28;;;9.10;83.60;;;;;;6156185;23;20009;-76
2023/03/02 04:42:18;;;;;;;6.30;4.35;;;9.20;83.30;;;;;;6156508;23;20009;-75
2023/03/02 04:44:44;;;;;;;5.63;3.90;;;9.20;83.40;;;;;;6156347;23;20005;-76
2023/03/02 04:47:10;;;;;;;7.35;4.03;;;9.20;83.20;;;;;;6156570;23;20002;-77
2023/03/02 04:49:36;;;;;;;7.82;4.25;;;9.20;82.90;;;;;;6156651;23;20017;-76
2023/03/02 04:52:02;;;;;;;6.68;4.20;;;9.20;83.00;;;;;;6156422;23;20301;-76
2023/03/02 04:54:28;;;;;;;5.65;4.10;;;9.20;83.30;;;;;;6156149;23;20433;-77
2023/03/02 04:56:54;;;;;;;6.40;4.22;;;9.10;83.10;;;;;;6156183;23;20005;-75
2023/03/02 04:59:24;;;;;;;7.22;4.88;;;9.00;83.50;;;;;;6155907;23;20400;-75
2023/03/02 05:01:51;;;;;;;5.68;3.90;;;8.90;83.60;;;;;;6155856;23;20017;-77
2023/03/02 05:04:17;;;;;;;6.45;4.13;;;8.90;83.90;;;;;;6156450;23;20001;-75
2023/03/02 05:06:43;;;;;;;5.78;3.97;;;8.80;83.80;;;;;;6130328;23;20084;-74
2023/03/02 05:09:10;;;;;;;7.07;4.35;;;8.80;84.00;;;;;;6156232;23;20001;-76
2023/03/02 05:11:36;;;;;;;6.30;4.38;;;8.80;84.00;;;;;;6156224;23;20001;-75
2023/03/02 05:14:04;;;;;;;6.95;4.30;;;8.70;83.70;;;;;;6156274;23;20056;-76
2023/03/02 05:16:32;;;;;;;6.25;4.63;;;8.70;83.80;;;;;;6156075;23;20010;-76
2023/03/02 05:18:58;;;;;;;6.78;4.63;;;8.70;83.90;;;;;;6156092;23;20088;-76
2023/03/02 05:21:25;;;;;;;7.82;4.40;;;8.70;83.80;;;;;;6155948;23;19998;-78
2023/03/02 05:23:51;;;;;;;6.03;4.18;;;8.80;84.30;;;;;;6155823;23;20332;-77
2023/03/02 05:26:17;;;;;;;7.22;4.07;;;8.90;84.20;;;;;;6155623;23;20045;-76
2023/03/02 05:28:43;;;;;;;5.95;3.92;;;8.90;83.60;;;;;;6155964;23;20016;-76
2023/03/02 05:31:22;;;;;;;8.50;4.05;;;9.00;83.70;;;;;;6155815;23;20081;-76
2023/03/02 05:33:48;;;;;;;9.25;4.35;;;9.00;84.00;;;;;;6155908;23;20052;-78
2023/03/02 05:36:14;;;;;;;6.90;3.88;;;9.10;83.10;;;;;;6155822;23;20009;-77
2023/03/02 05:38:40;;;;;;;5.85;3.85;;;9.20;82.80;;;;;;6156047;23;20018;-76
2023/03/02 05:41:06;;;;;;;5.50;3.80;;;9.30;82.60;;;;;;6129774;23;20012;-78
2023/03/02 05:43:32;;;;;;;6.43;4.10;;;9.30;82.40;;;;;;6155489;23;20001;-76
2023/03/02 05:45:59;;;;;;;6.90;3.28;;;9.30;81.90;;;;;;6155870;23;20021;-76
2023/03/02 05:48:26;;;;;;;5.53;3.65;;;9.40;82.30;;;;;;6155371;23;20077;-76
2023/03/02 05:50:52;;;;;;;7.80;3.22;;;9.40;82.10;;;;;;6155925;23;20009;-77
2023/03/02 05:53:17;;;;;;;7.57;3.47;;;9.40;82.00;;;;;;6156018;23;20002;-78
2023/03/02 05:55:43;;;;;;;5.97;3.20;;;9.50;82.00;;;;;;6156384;23;20363;-76
2023/03/02 05:58:13;;;;;;;7.55;3.38;;;9.50;81.80;;;;;;6155790;23;20013;-77
2023/03/02 06:00:39;;;;;;;6.55;3.47;;;9.60;81.60;;;;;;6155548;23;20060;-77
2023/03/02 06:03:05;;;;;;;6.32;3.15;;;9.70;81.70;;;;;;6155581;23;20432;-78
2023/03/02 06:05:31;;;;;;;8.20;2.85;;;9.70;81.00;;;;;;6155334;23;20008;-76
2023/03/02 06:07:57;;;;;;;6.90;3.20;;;9.80;80.90;;;;;;6155430;23;20007;-79
2023/03/02 06:10:23;;;;;;;7.00;3.33;;;9.90;81.60;;;;;;6155298;23;20005;-77
2023/03/02 06:12:49;;;;;;;6.22;3.47;;;9.90;80.20;;;;;;6155707;23;20298;-76
2023/03/02 06:15:15;;;;;;;9.60;4.03;;;9.90;80.20;;;;;;6128988;23;20014;-76
2023/03/02 06:17:41;;;;;;;7.50;3.92;;;9.90;80.70;;;;;;6128349;23;20014;-77
2023/03/02 06:20:09;;;;;;;8.40;3.75;;;9.90;80.70;;;;;;6155280;23;20002;-76
2023/03/02 06:22:46;;;;;;;6.65;4.15;;;9.90;80.60;;;;;;6155317;23;20002;-77
2023/03/02 06:25:15;;;;;;;6.32;3.85;;;9.80;80.10;;;;;;6154996;23;20072;-77
2023/03/02 06:27:41;;;;;;;5.97;4.13;;;9.80;80.00;;;;;;6155181;23;20001;-77
2023/03/02 06:30:11;;;;;;;7.15;3.78;;;9.80;79.90;;;;;;6155071;23;20545;-77
2023/03/02 06:32:37;;;;;;;7.25;4.00;;;9.80;79.80;;;;;;6155054;23;20001;-77
2023/03/02 06:35:04;;;;;;;6.30;4.22;;;9.80;80.40;;;;;;6154832;23;20464;-76
2023/03/02 06:37:30;;;;;;;6.40;4.00;;;9.80;79.90;;;;;;6154772;23;20452;-75
2023/03/02 06:39:57;;;;;;;5.63;3.60;;;9.70;79.20;;;;;;6155136;23;20017;-76
2023/03/02 06:42:24;;;;;;;6.15;3.65;;;9.80;79.70;;;;;;6129312;23;20016;-77
2023/03/02 06:44:50;;;;;;;6.20;3.88;;;9.80;79.50;;;;;;6155265;23;20039;-79
2023/03/02 06:47:17;;;;;;;7.43;4.63;;;9.80;79.60;;;;;;6154580;23;20005;-75
2023/03/02 06:49:43;;;;;;;9.88;4.18;;;9.80;79.90;;;;;;6155028;23;20033;-77
2023/03/02 06:52:09;;;;;;;6.63;2.90;;;9.90;79.80;;;;;;6155156;23;20006;-75
2023/03/02 06:54:36;;;;;;;6.30;2.55;;;10.00;78.60;;;;;;6155287;23;19998;-78
2023/03/02 06:57:02;;;;;;;6.05;2.30;;;10.20;78.20;;;;;;6153296;23;20446;-78
2023/03/02 06:59:28;;;;;;;8.45;2.60;;;10.30;78.10;;;;;;6154268;23;20101;-77
2023/03/02 07:01:53;;;;;;;4.72;2.50;;;10.40;78.00;;;;;;6154235;23;20045;-77
2023/03/02 07:04:19;;;;;;;8.18;2.63;;;10.50;77.80;;;;;;6155272;23;20430;-77
2023/03/02 07:06:46;;;;;;;5.45;2.40;;;10.60;77.70;;;;;;6155336;23;20049;-78
2023/03/02 07:09:13;;;;;;;5.80;2.28;;;10.70;77.30;;;;;;6155852;23;20037;-77
2023/03/02 07:11:39;;;;;;;8.48;2.33;;;10.80;77.00;;;;;;6155253;23;20389;-78
2023/03/02 07:14:05;;;;;;;6.53;2.47;;;10.80;76.80;;;;;;6155500;23;20006;-78
2023/03/02 07:16:33;;;;;;;6.35;3.00;;;10.80;76.90;;;;;;6155512;23;20716;-77
2023/03/02 07:18:59;;;;;;;5.97;2.85;;;10.80;76.40;;;;;;6155222;23;20425;-78
2023/03/02 07:21:25;;;;;;;11.90;4.00;;;10.80;76.80;;;;;;6156017;23;20008;-79
2023/03/02 07:23:51;;;;;;;9.27;2.65;;;10.90;77.00;;;;;;6129372;23;20014;-76
2023/03/02 07:26:16;;;;;;;9.32;2.70;;;10.90;77.10;;;;;;6155331;23;20002;-78
2023/03/02 07:28:43;;;;;;;9.13;3.20;;;10.90;76.90;;;;;;6129100;23;20013;-76
2023/03/02 07:31:09;;;;;;;8.23;2.80;;;10.90;76.90;;;;;;6155339;23;19998;-74
2023/03/02 07:33:37;;;;;;;11.63;2.60;;;10.90;76.70;;;;;;6155209;23;20005;-75
2023/03/02 07:36:03;;;;;;;5.68;3.20;;;10.90;76.80;;;;;;6155065;23;20057;-76
2023/03/02 07:38:28;;;;;;;9.10;3.92;;;10.90;76.50;;;;;;6154776;23;20341;-75
2023/03/02 07:40:54;;;;;;;13.05;4.50;;;10.90;76.20;;;;;;6155006;23;20076;-76
2023/03/02 07:43:22;;;;;;;8.48;3.60;;;10.90;76.30;;;;;;6154827;23;20001;-75
2023/03/02 07:45:48;;;;;;;7.03;3.58;;;10.80;76.30;;;;;;6155227;23;20013;-75
2023/03/02 07:48:14;;;;;;;10.10;3.50;;;10.80;76.10;;;;;;6154788;23;20032;-76
2023/03/02 07:50:40;;;;;;;8.05;3.90;;;10.90;76.30;;;;;;6154600;23;20006;-75
2023/03/02 07:53:06;;;;;;;9.55;3.90;;;10.90;76.00;;;;;;6155259;23;20016;-75
2023/03/02 07:55:32;;;;;;;6.75;2.90;;;10.90;76.20;;;;;;6155019;23;20021;-76
2023/03/02 07:57:57;;;;;;;5.55;2.80;;;11.00;75.90;;;;;;6154724;23;20009;-76
2023/03/02 08:00:23;;;;;;;8.13;2.63;;;11.10;75.80;;;;;;6154933;23;20331;-75
2023/03/02 08:02:49;;;;;;;5.53;2.58;;;11.20;75.60;;;;;;6155310;23;20009;-79
2023/03/02 08:05:15;;;;;;;9.73;2.65;;;11.40;75.70;;;;;;6154814;23;20017;-75
2023/03/02 08:07:41;;;;;;;7.10;2.90;;;11.50;75.30;;;;;;6156158;23;20072;-75
2023/03/02 08:10:07;;;;;;;7.72;3.20;;;11.50;75.20;;;;;;6156953;23;20028;-78
2023/03/02 08:12:33;;;;;;;8.60;3.40;;;11.50;75.20;;;;;;6156961;23;20001;-76
2023/03/02 08:14:59;;;;;;;6.78;3.10;;;11.40;75.00;;;;;;6156195;23;20011;-76
2023/03/02 08:17:25;;;;;;;5.35;3.40;;;11.40;74.90;;;;;;6156006;23;20005;-77
2023/03/02 08:19:50;;;;;;;6.47;3.33;;;11.30;75.00;;;;;;6156845;23;20019;-76
2023/03/02 08:22:16;;;;;;;9.88;3.03;;;11.30;75.20;;;;;;6157209;23;20001;-76
2023/03/02 08:24:42;;;;;;;7.25;3.08;;;11.30;75.20;;;;;;6157389;23;20077;-77
2023/03/02 08:27:12;;;;;;;7.50;3.60;;;11.30;75.00;;;;;;6156959;23;20009;-79
2023/03/02 08:29:38;;;;;;;5.85;2.60;;;11.40;74.80;;;;;;6156619;23;20006;-76
2023/03/02 08:32:04;;;;;;;6.65;2.45;;;11.60;74.80;;;;;;6156826;23;20308;-77
2023/03/02 08:34:30;;;;;;;9.02;2.55;;;11.70;74.70;;;;;;6156974;23;20490;-77
2023/03/02 08:36:55;;;;;;;5.63;2.38;;;12.00;74.50;;;;;;6156964;23;20045;-77
2023/03/02 08:39:22;;;;;;;7.22;2.38;;;12.20;74.00;;;;;;6156663;23;20010;-78
2023/03/02 08:41:54;;;;;;;6.35;2.20;;;12.50;73.50;;;;;;6130294;23;20012;-76
2023/03/02 08:44:22;;;;;;;10.35;2.50;;;12.70;72.90;;;;;;6156539;23;20008;-78
2023/03/02 08:46:49;;;;;;;9.05;2.47;;;12.80;72.30;;;;;;6159583;23;20084;-78
2023/03/02 08:49:15;;;;;;;8.20;2.00;;;13.00;72.40;;;;;;6163154;23;20336;-77
2023/03/02 08:51:41;;;;;;;6.25;1.90;;;13.10;71.90;;;;;;6162607;23;20327;-77
2023/03/02 08:54:08;;;;;;;7.00;1.75;;;13.10;71.80;;;;;;6174306;23;20002;-76
2023/03/02 08:56:36;;;;;;;5.07;1.98;;;13.10;71.30;;;;;;6183125;23;19990;-76
2023/03/02 08:59:04;;;;;;;10.57;2.10;;;13.20;71.40;;;;;;6146103;23;20028;-78
2023/03/02 09:01:34;;;;;;;6.20;1.52;;;13.20;71.00;;;;;;6160059;23;20014;-78
2023/03/02 09:04:00;;;;;;;4.60;1.83;;;13.30;71.10;;;;;;6156966;23;20018;-76
2023/03/02 09:06:28;;;;;;;5.57;1.40;;;13.30;70.90;;;;;;6130297;23;20005;-76
2023/03/02 09:08:54;;;;;;;5.15;1.88;;;13.40;70.30;;;;;;6129575;23;20507;-76
2023/03/02 09:11:20;;;;;;;5.75;1.75;;;13.50;70.10;;;;;;6155309;23;20001;-78
2023/03/02 09:13:47;;;;;;;6.95;1.63;;;13.50;70.10;;;;;;6156082;23;20011;-75
2023/03/02 09:16:13;;;;;;;5.90;1.60;;;13.50;70.30;;;;;;6155657;23;20016;-76
2023/03/02 09:18:39;;;;;;;5.95;1.50;;;13.50;70.20;;;;;;6155543;23;20013;-76
2023/03/02 09:21:05;;;;;;;3.75;1.58;;;13.60;69.80;;;;;;6155421;23;20390;-76
2023/03/02 09:23:32;;;;;;;5.32;1.30;;;13.60;69.30;;;;;;6156270;23;20005;-78
2023/03/02 09:25:58;;;;;;;6.65;1.75;;;13.70;69.00;;;;;;6156133;23;19997;-77
2023/03/02 09:28:23;;;;;;;4.80;1.65;;;13.80;68.30;;;;;;6156047;23;20020;-76
2023/03/02 09:30:56;;;;;;;4.50;1.70;;;13.80;68.80;;;;;;6156362;23;20069;-78
2023/03/02 09:33:23;;;;;;;4.50;1.50;;;13.80;68.30;;;;;;6155968;23;20006;-77
2023/03/02 09:35:49;;;;;;;2.58;1.35;;;13.80;68.00;;;;;;6155716;23;20045;-78
2023/03/02 09:38:17;;;;;;;6.25;1.70;;;13.90;67.80;;;;;;6129653;23;20097;-78
2023/03/02 09:40:50;;;;;;;3.10;1.30;;;13.90;68.10;;;;;;6156315;23;20005;-78
2023/03/02 09:43:37;;;;;;;4.82;1.20;;;13.90;67.80;;;;;;6130147;23;20005;-78
2023/03/02 09:46:13;;;;;;;3.65;1.23;;;14.00;67.90;;;;;;6158167;23;20006;-78
2023/03/02 09:49:17;;;;;;;17.10;2.45;;;14.00;67.30;;;;;;6156892;23;19997;-76
2023/03/02 09:52:21;;;;;;;3.05;1.17;;;14.00;67.60;;;;;;6155589;23;20456;-79
2023/03/02 09:54:47;;;;;;;3.78;1.50;;;14.10;67.50;;;;;;6121459;23;20451;-78
2023/03/02 09:57:27;;;;;;;10.45;1.70;;;14.10;67.10;;;;;;6155675;23;19997;-78
2023/03/02 10:00:12;;;;;;;3.70;1.42;;;14.20;67.80;;;;;;6129795;23;20021;-82
2023/03/02 10:02:48;;;;;;;4.30;1.40;;;14.30;67.10;;;;;;6128746;23;20024;-78
2023/03/02 10:05:23;;;;;;;5.78;1.45;;;14.40;66.60;;;;;;6155334;23;20016;-76
2023/03/02 10:07:49;;;;;;;10.02;2.33;;;14.60;66.10;;;;;;6155076;23;20008;-80
2023/03/02 10:10:45;;;;;;;8.95;2.60;;;14.80;65.80;;;;;;6128103;23;20001;-76
2023/03/02 10:13:22;;;;;;;4.63;1.30;;;14.90;66.10;;;;;;6155307;23;20002;-76
2023/03/02 10:15:53;;;;;;;8.75;1.90;;;15.10;65.70;;;;;;6155330;23;20006;-77
2023/03/02 10:18:56;;;;;;;4.80;1.40;;;15.20;65.20;;;;;;6155372;23;20056;-75
2023/03/02 10:21:27;;;;;;;6.90;1.65;;;15.10;64.80;;;;;;6155094;23;20040;-76
2023/03/02 10:24:00;;;;;;;4.18;1.50;;;15.10;64.40;;;;;;6155214;23;20037;-78
2023/03/02 10:26:34;;;;;;;3.78;1.60;;;15.20;64.90;;;;;;6155851;23;20005;-79
2023/03/02 10:29:04;;;;;;;2.65;1.25;;;15.20;64.20;;;;;;6155353;23;20305;-77
2023/03/02 10:31:32;;;;;;;12.25;2.53;;;15.10;64.00;;;;;;6155171;23;20001;-75
2023/03/02 10:33:59;;;;;;;3.58;1.45;;;15.10;63.80;;;;;;6156057;23;20339;-78
2023/03/02 10:36:36;;;;;;;2.88;1.55;;;15.10;63.70;;;;;;6155626;23;20007;-75
2023/03/02 10:39:05;;;;;;;3.22;1.50;;;15.10;63.70;;;;;;6155087;23;20010;-85
2023/03/02 10:41:38;;;;;;;5.10;1.65;;;15.20;64.50;;;;;;6128116;23;20013;-73
2023/03/02 10:44:19;;;;;;;5.50;1.60;;;15.20;63.40;;;;;;6143288;23;20006;-76
2023/03/02 10:46:46;;;;;;;4.15;1.40;;;15.30;63.00;;;;;;6127947;23;20377;-79
2023/03/02 10:49:31;;;;;;;3.17;1.40;;;15.50;62.70;;;;;;6155055;23;20017;-79
2023/03/02 10:52:11;;;;;;;2.60;1.30;;;15.60;62.20;;;;;;6154582;23;20006;-77
2023/03/02 10:54:37;;;;;;;6.55;1.45;;;15.80;61.90;;;;;;6153932;23;20005;-76
2023/03/02 10:57:20;;;;;;;1.98;1.20;;;15.80;61.70;;;;;;6154174;23;20001;-75
2023/03/02 10:59:46;;;;;;;3.77;1.30;;;15.90;61.80;;;;;;6154698;23;20014;-73
2023/03/02 11:02:22;;;;;;;5.63;1.80;;;15.90;61.80;;;;;;6154091;23;20027;-78
2023/03/02 11:04:53;;;;;;;5.43;1.50;;;16.00;62.20;;;;;;6128732;23;20010;-82
2023/03/02 11:07:21;;;;;;;4.50;1.58;;;16.00;62.30;;;;;;6155926;23;20366;-82
2023/03/02 11:10:06;;;;;;;5.60;1.90;;;16.00;62.10;;;;;;6154772;23;20399;-76
2023/03/02 11:12:35;;;;;;;22.92;2.97;;;16.00;62.00;;;;;;6154226;23;20002;-73
2023/03/02 11:15:13;;;;;;;4.80;2.17;;;16.10;62.30;;;;;;6154204;23;20004;-78
2023/03/02 11:17:41;;;;;;;3.25;1.80;;;16.20;62.70;;;;;;6153916;23;20056;-75
2023/03/02 11:20:16;;;;;;;5.65;1.65;;;16.20;62.00;;;;;;6153965;23;20081;-76
2023/03/02 11:23:11;;;;;;;5.55;1.52;;;16.20;61.70;;;;;;6154402;23;20119;-78
2023/03/02 11:25:41;;;;;;;8.73;1.85;;;16.30;61.10;;;;;;6154331;23;20495;-79
2023/03/02 11:28:29;;;;;;;4.65;1.92;;;16.30;61.00;;;;;;6153803;23;20459;-77
2023/03/02 11:30:57;;;;;;;4.30;1.70;;;16.40;60.90;;;;;;6154190;23;20002;-79
2023/03/02 11:33:58;;;;;;;4.38;1.70;;;16.50;60.50;;;;;;6154854;23;19998;-77
2023/03/02 11:36:41;;;;;;;6.78;2.15;;;16.60;60.50;;;;;;6100886;23;20429;-74
2023/03/02 11:39:13;;;;;;;2.00;1.05;;;16.60;60.80;;;;;;6154117;23;20013;-72
2023/03/02 11:41:40;;;;;;;13.60;1.85;;;16.70;60.10;;;;;;6154102;23;20080;-73
2023/03/02 11:44:17;;;;;;;3.97;1.52;;;16.80;60.40;;;;;;6154262;23;20135;-76
2023/03/02 11:46:55;;;;;;;3.28;1.33;;;16.90;60.40;;;;;;6154314;23;20004;-75
2023/03/02 11:49:43;;;;;;;6.13;1.45;;;16.90;60.70;;;;;;6154121;23;20010;-75
2023/03/02 11:52:18;;;;;;;8.73;1.83;;;16.90;60.20;;;;;;6153299;23;20053;-75
2023/03/02 11:54:49;;;;;;;4.28;1.50;;;16.90;60.20;;;;;;6154867;23;20411;-77
2023/03/02 11:57:21;;;;;;;5.28;1.92;;;16.80;60.30;;;;;;6128356;23;20027;-76
2023/03/02 11:59:48;;;;;;;4.10;1.50;;;16.90;60.50;;;;;;6128253;23;20352;-75
2023/03/02 12:02:15;;;;;;;3.40;1.70;;;16.90;60.30;;;;;;6154082;23;20021;-75
2023/03/02 12:04:40;;;;;;;5.82;1.80;;;16.80;60.20;;;;;;6153401;23;20009;-75
2023/03/02 12:07:21;;;;;;;4.28;1.85;;;16.80;60.40;;;;;;6154570;23;20059;-77
2023/03/02 12:10:27;;;;;;;3.33;1.77;;;16.90;60.00;;;;;;6128369;23;20013;-77
2023/03/02 12:13:21;;;;;;;3.03;1.60;;;16.80;59.70;;;;;;6124810;23;20082;-75
2023/03/02 12:15:50;;;;;;;4.07;1.85;;;16.70;60.30;;;;;;6153952;23;20009;-76
2023/03/02 12:18:22;;;;;;;5.75;2.08;;;16.60;60.50;;;;;;6128378;23;20028;-76
2023/03/02 12:20:58;;;;;;;5.60;1.95;;;16.40;60.80;;;;;;6154547;23;20010;-74
2023/03/02 12:23:24;;;;;;;4.22;1.40;;;16.20;60.50;;;;;;6154509;23;20104;-75
2023/03/02 12:26:01;;;;;;;6.28;1.80;;;16.10;59.90;;;;;;6154776;23;20016;-76
2023/03/02 12:28:35;;;;;;;4.82;1.60;;;16.20;59.40;;;;;;6154700;23;20001;-74
2023/03/02 12:31:08;;;;;;;4.22;1.52;;;16.40;59.00;;;;;;6154321;23;20083;-75
2023/03/02 12:33:42;;;;;;;6.20;1.90;;;16.40;58.60;;;;;;6154256;23;20384;-76
2023/03/02 12:36:34;;;;;;;3.58;1.40;;;16.40;58.80;;;;;;6154620;23;20405;-75
2023/03/02 12:39:47;;;;;;;4.28;1.95;;;16.30;59.20;;;;;;6154646;23;20032;-76
2023/03/02 12:42:16;;;;;;;6.95;1.90;;;16.30;59.60;;;;;;6148759;23;20013;-75
2023/03/02 12:44:48;;;;;;;7.68;1.83;;;16.20;60.10;;;;;;6154399;23;20009;-76
2023/03/02 12:47:20;;;;;;;4.50;1.33;;;16.20;60.20;;;;;;6154718;23;20024;-74
2023/03/02 12:50:17;;;;;;;6.63;1.73;;;16.10;60.40;;;;;;6154900;23;20009;-77
2023/03/02 12:52:42;;;;;;;8.63;1.65;;;16.00;60.90;;;;;;6154309;23;19998;-76
2023/03/02 12:55:08;;;;;;;3.70;1.52;;;15.90;61.90;;;;;;6129450;23;20132;-77
2023/03/02 12:57:37;;;;;;;4.63;1.55;;;15.80;62.20;;;;;;6156301;23;20001;-75
2023/03/02 13:00:04;;;;;;;5.07;2.00;;;15.80;62.60;;;;;;6158278;23;20073;-81
2023/03/02 13:02:35;;;;;;;4.80;2.35;;;15.90;62.70;;;;;;6160977;23;20048;-81